Russell, KS

9:47 PM CDT on May 25, 2015 (GMT -0500)
Ruppenthal Middle School | | Change Station
CLOSE
Current Station
Personal Weather Station
Location: Russell, KS
Elevation: 1854 ft
Nearby Weather Stations

Elev 1854 ft 38.89 °N, 98.86 °W | Updated 2 minutes ago

Partly Cloudy
Partly Cloudy
65.6 °F
Feels Like 65.6 °F
N
0.0
Wind Variable Wind from East
Gusts 4.0 mph

Today
High -- | Low -- °F
--% Chance of Precip.
Yesterday
High -- | Low -- °F
Precip. -- in
6:15 AM 8:49 PM
First Quarter, 54% visible
Pressure 29.74 in
Visibility 10.0 miles
Clouds Few 11000 ft
Dew Point 61 °F
Humidity 85%
Rainfall 0.20 in
Snow Depth Not available.
UV 0 out of 12
Pollen 7.60 out of 12
Air Quality Not available.
Flu Activity No Activity
METAR KRSL 260153Z AUTO 16007KT 10SM VCTS FEW110 18/16 A2976 RMK AO2 LTG DSNT NW-NE SLP070 T01780156

More Conditions Fewer Conditions

Pressure 29.74 in
Visibility 10.0 miles
Clouds Few 11000 ft
Dew Point 61 °F
Humidity 85%
Rainfall 0.20 in
Snow Depth Not available.
UV 0 out of 12
Pollen 7.60 out of 12
Air Quality Not available.
Flu Activity No Activity
METAR KRSL 260153Z AUTO 16007KT 10SM VCTS FEW110 18/16 A2976 RMK AO2 LTG DSNT NW-NE SLP070 T01780156

More Conditions Fewer Conditions

10-Day Weather Forecast

Almanac

Astronomy

May. 25, 2015 Rise Set
Actual Time
Civil Twilight
Nautical Twilight
Astronomical Twilight
Moon
Length of Visible Light
Length of Day
Tomorrow will be .
, % of the Moon is Illuminated

Today's Extremes

State Highs State Lows

Community

WunderPhotos

Upload Photos

1,824,238 photos uploaded!

WunderBlogs® & News

Nearby

Air Quality

  Air Quality AQ Index Pollutant
Not available.

Snow Depth

Station Depth Elevation

Earthquake Activity

City Distance Mag. Time & Date
Minimum magnitude displayed is 2.5.

Coastal Water Temperatures

Place Temperature

Stations

Nearby Weather Stations

Station Location Temp. Windchill Dew Point Humidity Wind Precip. Elev Updated Type